CheckWX is a tool to help pilots better visualize weather data.  It is not intended as a substitute for an official pre-flight weather briefing.

19:16:29 UTC

KNQX METAR
Key West NAS / Boca Chica Field Airport
Key West, Florida, USA
Current

23 mins ago

KNQX 261853Z 10015KT 10SM FEW032 31/22 A3006 RMK AO2 SLP177 T03110217
Observed
May-26 @ 18:53 UTC
Wind
  • 100° at 15 KTS
Visibility
10 SM
Flight Rules
VFR
Cloud Levels
  • Few at 3,200' AGL
Temperature
31°C / 88°F
Dewpoint
22°C / 72°F
Heat Index
35°C / 95°F
Humidity
59%
Altimeter
30.06" Hg
Pressure
1017.92 hPa
Previous

1 hour ago

KNQX 261753Z 10017G21KT 10SM FEW032 31/21 A3007 RMK AO2 SLP181 T03060206 10311 20272 58008
Observed
May-26 @ 17:53 UTC
Wind
  • 100° at 17 KTS
  • Gusting to 21 KTS
Visibility
10 SM
Flight Rules
VFR
Cloud Levels
  • Few at 3,200' AGL
Temperature
31°C / 88°F
Dewpoint
21°C / 70°F
Heat Index
34°C / 93°F
Humidity
55%
Altimeter
30.07" Hg
Pressure
1018.32 hPa
Previous

2 hours ago

KNQX 261653Z 09014KT 10SM FEW027 31/21 A3009 RMK AO2 SLP186 T03060211
Observed
May-26 @ 16:53 UTC
Wind
  • 090° at 14 KTS
Visibility
10 SM
Flight Rules
VFR
Cloud Levels
  • Few at 2,700' AGL
Temperature
31°C / 88°F
Dewpoint
21°C / 70°F
Heat Index
34°C / 93°F
Humidity
55%
Altimeter
30.09" Hg
Pressure
1018.92 hPa